Time;durP1;ratioP1;P1;durP2;ratioP2;P2;SDS_P1;SDS_P2;PMS_P1;PMS_P2;Temp;Humidity;BMP_temperature;BMP_pressure;BME280_temperature;BME280_humidity;BME280_pressure;Samples;Min_cycle;Max_cycle;Signal;HPM_P1;HPM_P2
2023/05/04 00:00:18;;;;;;;3.92;1.98;;;17.60;45.20;;;;;;5053811;28;20025;-77
2023/05/04 00:02:44;;;;;;;4.13;2.63;;;17.60;45.30;;;;;;5053988;28;20036;-77
2023/05/04 00:05:11;;;;;;;2.67;1.90;;;17.60;45.40;;;;;;5053442;28;20033;-76
2023/05/04 00:07:37;;;;;;;3.50;2.00;;;17.50;45.30;;;;;;5052459;28;20048;-77
2023/05/04 00:10:03;;;;;;;2.63;2.05;;;17.50;45.30;;;;;;5053758;28;20041;-77
2023/05/04 00:12:29;;;;;;;2.10;1.90;;;17.50;45.50;;;;;;5053626;28;20028;-77
2023/05/04 00:14:55;;;;;;;2.25;2.05;;;17.50;45.40;;;;;;5053703;28;20032;-78
2023/05/04 00:17:20;;;;;;;3.05;2.00;;;17.50;45.40;;;;;;5053411;28;20059;-78
2023/05/04 00:19:46;;;;;;;2.65;2.10;;;17.50;45.50;;;;;;5053388;28;20033;-77
2023/05/04 00:22:12;;;;;;;3.47;1.92;;;17.50;45.50;;;;;;5053353;28;20021;-76
2023/05/04 00:24:37;;;;;;;1.85;1.67;;;17.50;45.60;;;;;;5053508;28;20409;-78
2023/05/04 00:27:03;;;;;;;3.95;2.00;;;17.40;45.50;;;;;;5052952;28;20029;-77
2023/05/04 00:29:29;;;;;;;3.75;1.92;;;17.40;45.60;;;;;;5053304;28;20029;-77
2023/05/04 00:31:55;;;;;;;1.95;1.75;;;17.40;45.60;;;;;;5053423;28;20021;-77
2023/05/04 00:34:21;;;;;;;2.35;1.80;;;17.40;45.60;;;;;;5053115;28;20029;-78
2023/05/04 00:36:46;;;;;;;2.42;1.67;;;17.40;45.60;;;;;;5053537;28;20039;-78
2023/05/04 00:39:12;;;;;;;2.30;2.00;;;17.30;45.60;;;;;;5053229;28;20036;-77
2023/05/04 00:41:38;;;;;;;1.98;1.77;;;17.30;45.80;;;;;;5053428;28;20025;-78
2023/05/04 00:44:04;;;;;;;3.63;2.10;;;17.30;45.80;;;;;;5053186;28;20114;-77
2023/05/04 00:46:31;;;;;;;2.35;1.90;;;17.30;45.90;;;;;;5053121;28;20044;-78
2023/05/04 00:48:58;;;;;;;3.67;2.03;;;17.20;45.80;;;;;;5052891;28;20039;-77
2023/05/04 00:51:25;;;;;;;2.55;2.00;;;17.20;45.90;;;;;;5057354;28;20090;-78
2023/05/04 00:53:52;;;;;;;2.78;1.90;;;17.20;46.00;;;;;;5056831;28;20029;-77
2023/05/04 00:56:20;;;;;;;2.30;1.67;;;17.20;46.00;;;;;;5057200;28;20473;-77
2023/05/04 00:58:45;;;;;;;2.47;1.90;;;17.10;46.00;;;;;;5057092;28;20029;-78
2023/05/04 01:01:11;;;;;;;3.58;1.90;;;17.00;46.00;;;;;;5057046;28;20029;-76
2023/05/04 01:03:37;;;;;;;2.55;1.88;;;17.00;46.10;;;;;;5057086;28;20545;-77
2023/05/04 01:06:27;;;;;;;1.52;1.42;;;17.00;46.20;;;;;;5057128;28;20037;-78
2023/05/04 01:08:58;;;;;;;2.78;1.52;;;17.00;46.30;;;;;;5057203;28;20044;-78
2023/05/04 01:11:32;;;;;;;2.00;1.80;;;17.00;46.30;;;;;;5056631;28;20116;-77
2023/05/04 01:14:00;;;;;;;2.20;2.00;;;17.00;46.30;;;;;;5056703;28;20029;-77
2023/05/04 01:16:26;;;;;;;1.83;1.73;;;17.00;46.30;;;;;;5056878;28;20115;-78
2023/05/04 01:18:52;;;;;;;1.98;1.80;;;17.00;46.30;;;;;;5056862;28;20112;-78
2023/05/04 01:21:17;;;;;;;3.03;1.90;;;16.90;46.30;;;;;;5056930;28;20402;-78
2023/05/04 01:23:43;;;;;;;1.98;1.83;;;16.90;46.30;;;;;;5056807;28;20033;-77
2023/05/04 01:26:23;;;;;;;2.35;1.90;;;16.90;46.40;;;;;;5056507;28;20078;-77
2023/05/04 01:29:15;;;;;;;2.28;1.80;;;16.90;46.40;;;;;;5056630;28;20074;-77
2023/05/04 01:31:43;;;;;;;2.80;2.00;;;16.90;46.40;;;;;;5056258;28;20033;-77
2023/05/04 01:34:10;;;;;;;2.40;1.73;;;16.90;46.40;;;;;;5055379;28;20422;-78
2023/05/04 01:36:36;;;;;;;2.33;1.83;;;16.90;46.50;;;;;;5055915;28;20375;-77
2023/05/04 01:39:02;;;;;;;2.63;2.10;;;16.90;46.50;;;;;;5056311;28;20036;-77
2023/05/04 01:41:29;;;;;;;2.50;2.00;;;16.80;46.40;;;;;;5056349;28;20516;-77
2023/05/04 01:43:55;;;;;;;2.70;2.20;;;16.80;46.50;;;;;;5055143;28;20021;-77
2023/05/04 01:46:21;;;;;;;2.05;1.80;;;16.90;46.60;;;;;;5056213;28;20029;-78
2023/05/04 01:48:47;;;;;;;3.60;1.95;;;16.80;46.50;;;;;;5056171;28;20029;-77
2023/05/04 01:51:12;;;;;;;2.58;1.75;;;16.90;46.60;;;;;;5056119;28;20040;-77
2023/05/04 01:53:38;;;;;;;3.28;2.15;;;16.70;46.60;;;;;;5055924;28;20021;-77
2023/05/04 01:56:04;;;;;;;2.65;2.10;;;16.70;46.70;;;;;;5056251;28;20155;-78
2023/05/04 01:58:30;;;;;;;3.03;2.05;;;16.60;46.80;;;;;;5056088;28;20029;-77
2023/05/04 02:00:58;;;;;;;4.03;2.15;;;16.60;46.80;;;;;;5055752;28;20463;-77
2023/05/04 02:03:24;;;;;;;3.05;2.00;;;16.60;46.90;;;;;;5055926;28;20029;-78
2023/05/04 02:05:50;;;;;;;3.00;1.92;;;16.50;46.90;;;;;;5055844;28;20036;-76
2023/05/04 02:08:15;;;;;;;2.75;2.20;;;16.50;47.00;;;;;;5055614;28;20037;-77
2023/05/04 02:10:41;;;;;;;3.25;2.10;;;16.50;47.20;;;;;;5055762;28;20476;-77
2023/05/04 02:13:07;;;;;;;2.53;2.10;;;16.40;47.20;;;;;;5055807;28;20067;-77
2023/05/04 02:15:32;;;;;;;2.13;1.90;;;16.50;47.30;;;;;;5055768;28;20405;-77
2023/05/04 02:17:58;;;;;;;2.88;1.95;;;16.40;47.20;;;;;;5055800;28;20029;-77
2023/05/04 02:20:24;;;;;;;3.38;2.05;;;16.40;47.30;;;;;;5055693;28;20025;-78
2023/05/04 02:22:49;;;;;;;3.80;1.83;;;16.50;47.30;;;;;;5055456;28;20422;-77
2023/05/04 02:25:15;;;;;;;2.25;1.83;;;16.40;47.30;;;;;;5055652;28;20383;-77
2023/05/04 02:27:41;;;;;;;3.72;2.30;;;16.40;47.20;;;;;;5055494;28;20060;-77
2023/05/04 02:30:08;;;;;;;2.17;1.98;;;16.40;47.30;;;;;;5055563;28;20083;-77
2023/05/04 02:32:33;;;;;;;3.22;2.00;;;16.30;47.40;;;;;;5055453;28;20410;-77
2023/05/04 02:34:59;;;;;;;3.53;2.40;;;16.30;47.50;;;;;;5055317;28;20036;-77
2023/05/04 02:37:25;;;;;;;3.47;2.20;;;16.30;47.50;;;;;;5055129;28;20060;-76
2023/05/04 02:39:50;;;;;;;1.92;1.75;;;16.20;47.60;;;;;;5055450;28;20451;-77
2023/05/04 02:42:16;;;;;;;2.28;2.08;;;16.20;47.60;;;;;;5055747;28;20025;-78
2023/05/04 02:44:42;;;;;;;2.53;1.98;;;16.20;47.70;;;;;;5055222;28;20035;-78
2023/05/04 02:47:08;;;;;;;2.45;1.80;;;16.20;47.70;;;;;;5055171;28;20112;-78
2023/05/04 02:49:34;;;;;;;2.17;1.85;;;16.20;47.70;;;;;;5054672;28;20025;-77
2023/05/04 02:52:00;;;;;;;2.40;1.80;;;16.20;47.70;;;;;;5055132;28;20037;-77
2023/05/04 02:54:25;;;;;;;3.63;2.10;;;16.20;47.70;;;;;;5055145;28;20029;-77
2023/05/04 02:56:51;;;;;;;2.20;2.00;;;16.20;47.70;;;;;;5054856;28;20040;-77
2023/05/04 02:59:17;;;;;;;2.42;1.90;;;16.20;47.70;;;;;;5055011;28;20059;-78
2023/05/04 03:01:42;;;;;;;2.30;2.00;;;16.20;47.70;;;;;;5054764;28;20063;-76
2023/05/04 03:04:08;;;;;;;2.28;1.90;;;16.20;47.80;;;;;;5055162;28;20033;-77
2023/05/04 03:06:33;;;;;;;2.47;2.00;;;16.20;47.80;;;;;;5054507;28;20469;-77
2023/05/04 03:08:59;;;;;;;1.88;1.77;;;16.20;47.80;;;;;;5054593;28;20083;-77
2023/05/04 03:11:25;;;;;;;2.78;1.98;;;16.20;47.90;;;;;;5054660;28;20541;-78
2023/05/04 03:13:51;;;;;;;2.45;1.92;;;16.10;47.80;;;;;;5054101;28;20375;-77
2023/05/04 03:16:17;;;;;;;4.22;2.10;;;16.20;47.90;;;;;;5052512;28;20035;-78
2023/05/04 03:18:42;;;;;;;2.83;2.05;;;16.10;47.90;;;;;;5052986;28;20033;-77
2023/05/04 03:21:08;;;;;;;3.20;2.30;;;16.10;47.90;;;;;;5049192;28;20025;-78
2023/05/04 03:23:34;;;;;;;3.15;2.10;;;16.10;48.00;;;;;;5042703;28;20025;-77
2023/05/04 03:25:59;;;;;;;3.05;2.10;;;16.10;48.00;;;;;;5042442;28;20021;-77
2023/05/04 03:28:25;;;;;;;4.78;2.30;;;16.20;48.00;;;;;;5043472;28;20502;-77
2023/05/04 03:30:51;;;;;;;5.22;3.00;;;16.20;48.00;;;;;;5042286;28;20024;-78
2023/05/04 03:33:16;;;;;;;4.28;3.17;;;16.20;47.90;;;;;;5043964;28;20060;-78
2023/05/04 03:35:42;;;;;;;4.43;2.50;;;16.30;48.00;;;;;;5042353;28;20518;-78
2023/05/04 03:38:08;;;;;;;3.72;2.65;;;16.30;48.00;;;;;;5051391;28;20033;-78
2023/05/04 03:40:34;;;;;;;4.50;2.40;;;16.30;47.90;;;;;;5054275;28;20031;-79
2023/05/04 03:43:00;;;;;;;3.22;2.47;;;16.40;47.90;;;;;;5053262;28;20029;-76
2023/05/04 03:45:27;;;;;;;3.70;2.45;;;16.40;48.50;;;;;;5054331;28;20375;-77
2023/05/04 03:47:54;;;;;;;2.72;2.10;;;16.40;47.80;;;;;;5054201;28;20056;-77
2023/05/04 03:50:21;;;;;;;2.28;2.00;;;16.50;47.90;;;;;;5052631;28;20033;-82
2023/05/04 03:52:46;;;;;;;3.53;1.83;;;16.50;47.80;;;;;;5052971;28;20083;-75
2023/05/04 03:55:12;;;;;;;5.35;2.42;;;16.50;47.90;;;;;;5054077;28;20057;-75
2023/05/04 03:57:38;;;;;;;4.15;3.10;;;16.60;47.90;;;;;;5054174;28;20021;-75
2023/05/04 04:00:04;;;;;;;3.72;2.78;;;16.60;47.90;;;;;;5054006;28;20052;-75
2023/05/04 04:02:30;;;;;;;5.53;3.10;;;16.60;47.90;;;;;;5053893;28;20036;-75
2023/05/04 04:04:56;;;;;;;4.80;3.00;;;16.70;47.90;;;;;;5053843;28;20391;-75
2023/05/04 04:07:22;;;;;;;5.35;3.08;;;16.70;47.80;;;;;;5053885;28;20032;-75
2023/05/04 04:09:48;;;;;;;4.47;2.70;;;16.70;47.80;;;;;;5053815;28;20029;-74
2023/05/04 04:12:17;;;;;;;3.83;2.17;;;16.70;47.70;;;;;;5053817;28;20021;-72
2023/05/04 04:14:43;;;;;;;2.42;2.20;;;16.80;47.80;;;;;;5053482;28;20020;-71
2023/05/04 04:17:08;;;;;;;3.13;2.28;;;16.70;47.70;;;;;;5053444;28;20092;-72
2023/05/04 04:19:34;;;;;;;2.85;2.00;;;16.80;47.80;;;;;;5054313;28;20120;-74
2023/05/04 04:22:00;;;;;;;2.00;1.80;;;16.80;47.80;;;;;;5052368;28;20021;-73
2023/05/04 04:24:26;;;;;;;2.95;1.90;;;16.80;47.80;;;;;;5053837;28;20056;-73
2023/05/04 04:26:52;;;;;;;4.88;2.50;;;16.80;47.80;;;;;;5053786;28;20021;-73
2023/05/04 04:29:17;;;;;;;2.72;2.30;;;16.80;47.80;;;;;;5053242;28;20045;-73
2023/05/04 04:31:43;;;;;;;4.10;3.20;;;16.90;47.80;;;;;;5053240;28;20029;-73
2023/05/04 04:34:09;;;;;;;5.40;3.70;;;16.90;47.80;;;;;;5053201;28;20033;-73
2023/05/04 04:36:34;;;;;;;7.18;3.33;;;16.90;47.80;;;;;;5053514;28;20032;-73
2023/05/04 04:39:00;;;;;;;5.25;3.00;;;16.90;47.70;;;;;;5053653;28;20033;-73
2023/05/04 04:41:25;;;;;;;5.20;2.75;;;17.00;47.80;;;;;;5053472;28;20423;-73
2023/05/04 04:43:51;;;;;;;3.17;2.30;;;16.90;47.70;;;;;;5053478;28;20112;-73
2023/05/04 04:46:18;;;;;;;5.22;2.55;;;17.00;47.80;;;;;;5053333;28;20033;-73
2023/05/04 04:48:43;;;;;;;4.55;2.13;;;17.00;47.80;;;;;;5053137;28;20479;-73
2023/05/04 04:51:11;;;;;;;2.60;2.05;;;17.00;47.80;;;;;;5053371;28;20029;-73
2023/05/04 04:53:37;;;;;;;2.65;1.77;;;17.00;47.70;;;;;;5053417;28;20032;-73
2023/05/04 04:56:03;;;;;;;2.60;1.83;;;17.00;47.70;;;;;;5053404;28;20021;-73
2023/05/04 04:58:29;;;;;;;2.90;2.20;;;17.10;47.80;;;;;;5052996;28;20036;-73
2023/05/04 05:00:57;;;;;;;3.63;2.28;;;17.10;47.70;;;;;;5053061;28;20025;-73
2023/05/04 05:03:23;;;;;;;2.45;2.00;;;17.10;47.70;;;;;;5052913;28;20025;-72
2023/05/04 05:05:48;;;;;;;2.70;1.90;;;17.20;47.80;;;;;;5051485;28;20459;-73
2023/05/04 05:08:15;;;;;;;3.35;2.08;;;17.20;47.70;;;;;;5052921;28;20040;-73
2023/05/04 05:10:41;;;;;;;2.95;1.90;;;17.30;47.80;;;;;;5051536;28;20463;-73
2023/05/04 05:13:07;;;;;;;2.63;2.00;;;17.30;47.70;;;;;;5052960;28;20107;-73
2023/05/04 05:15:33;;;;;;;2.88;2.20;;;17.40;47.70;;;;;;5052810;28;20352;-73
2023/05/04 05:17:59;;;;;;;3.30;2.20;;;17.40;47.70;;;;;;5053054;28;20123;-73
2023/05/04 05:20:25;;;;;;;2.88;2.53;;;17.40;47.70;;;;;;5053319;28;20064;-73
2023/05/04 05:22:51;;;;;;;3.10;2.42;;;17.40;47.70;;;;;;5053245;28;20021;-73
2023/05/04 05:25:17;;;;;;;3.55;2.22;;;17.40;47.70;;;;;;5052683;28;20532;-73
2023/05/04 05:27:43;;;;;;;3.53;2.55;;;17.50;47.70;;;;;;5052746;28;20053;-73
2023/05/04 05:30:10;;;;;;;2.85;2.08;;;17.50;47.80;;;;;;5053204;28;20040;-73
2023/05/04 05:32:36;;;;;;;3.45;2.00;;;17.50;47.80;;;;;;5052880;28;20348;-73
2023/05/04 05:35:05;;;;;;;3.22;2.40;;;17.60;47.80;;;;;;5053397;28;20032;-74
2023/05/04 05:37:31;;;;;;;5.25;2.47;;;17.60;47.70;;;;;;5056407;28;20103;-73
2023/05/04 05:39:57;;;;;;;2.35;2.05;;;17.70;47.70;;;;;;5056090;28;20495;-73
2023/05/04 05:42:23;;;;;;;3.08;2.60;;;17.80;47.70;;;;;;5056555;28;20068;-73
2023/05/04 05:44:49;;;;;;;5.78;3.15;;;17.80;47.70;;;;;;5055102;28;20467;-73
2023/05/04 05:47:15;;;;;;;4.22;3.05;;;17.90;47.60;;;;;;5056377;28;20575;-73
2023/05/04 05:49:41;;;;;;;3.83;2.90;;;18.00;47.70;;;;;;5056383;28;20116;-73
2023/05/04 05:52:07;;;;;;;3.65;2.60;;;18.00;47.50;;;;;;5056247;28;20487;-74
2023/05/04 05:54:34;;;;;;;2.95;2.60;;;18.10;47.60;;;;;;5056127;28;20037;-73
2023/05/04 05:57:00;;;;;;;4.18;2.42;;;18.20;47.60;;;;;;5056143;28;20029;-73
2023/05/04 05:59:26;;;;;;;3.75;2.22;;;18.20;47.50;;;;;;5054532;28;20029;-73
2023/05/04 06:01:51;;;;;;;3.63;1.98;;;18.20;47.50;;;;;;5056204;28;20456;-73
2023/05/04 06:04:17;;;;;;;2.55;2.00;;;18.30;47.50;;;;;;5054842;28;20525;-73
2023/05/04 06:06:43;;;;;;;3.33;2.00;;;18.30;47.50;;;;;;5055719;28;20035;-73
2023/05/04 06:09:09;;;;;;;2.20;1.98;;;18.40;47.50;;;;;;5055839;28;20092;-73
2023/05/04 06:11:35;;;;;;;2.30;2.10;;;18.40;47.40;;;;;;5055964;28;20032;-73
2023/05/04 06:14:00;;;;;;;2.60;2.03;;;18.40;47.30;;;;;;5055598;28;20025;-73
2023/05/04 06:16:26;;;;;;;2.58;1.98;;;18.50;47.40;;;;;;5055283;28;20032;-73
2023/05/04 06:18:52;;;;;;;2.38;1.88;;;18.50;47.40;;;;;;5055897;28;20029;-73
2023/05/04 06:21:17;;;;;;;1.98;1.60;;;18.50;47.30;;;;;;5055841;28;20081;-73
2023/05/04 06:23:43;;;;;;;3.25;2.13;;;18.50;47.40;;;;;;5055785;28;20029;-73
2023/05/04 06:26:09;;;;;;;2.78;1.80;;;18.60;47.50;;;;;;5055483;28;20036;-73
2023/05/04 06:28:35;;;;;;;2.05;1.63;;;18.60;47.40;;;;;;5055528;28;20045;-73
2023/05/04 06:31:01;;;;;;;2.90;1.80;;;18.60;47.50;;;;;;5055555;28;20057;-73
2023/05/04 06:33:27;;;;;;;2.33;1.98;;;18.70;47.50;;;;;;5055673;28;20025;-73
2023/05/04 06:35:53;;;;;;;2.60;1.80;;;18.70;47.50;;;;;;5055436;28;20036;-73
2023/05/04 06:38:18;;;;;;;3.80;1.65;;;18.70;47.40;;;;;;5055098;28;20521;-73
2023/05/04 06:40:44;;;;;;;2.63;1.90;;;18.70;47.40;;;;;;5055447;28;20047;-73
2023/05/04 06:43:10;;;;;;;2.00;1.90;;;18.80;47.40;;;;;;5055300;28;20418;-73
2023/05/04 06:45:36;;;;;;;2.47;1.80;;;18.80;47.30;;;;;;5055363;28;20036;-73
2023/05/04 06:48:03;;;;;;;2.83;1.80;;;18.80;47.30;;;;;;5054984;28;20494;-74
2023/05/04 06:50:29;;;;;;;2.58;1.90;;;18.80;47.40;;;;;;5054905;28;20113;-73
2023/05/04 06:53:10;;;;;;;2.05;1.85;;;18.80;47.30;;;;;;5055189;28;20470;-73
2023/05/04 06:55:36;;;;;;;2.35;2.00;;;18.90;47.40;;;;;;5054926;28;20025;-73
2023/05/04 06:58:03;;;;;;;2.90;2.00;;;18.90;47.40;;;;;;5054929;28;20395;-73
2023/05/04 07:00:29;;;;;;;3.10;1.88;;;18.90;47.40;;;;;;5053763;28;20025;-74
2023/05/04 07:02:55;;;;;;;4.53;1.77;;;18.90;47.30;;;;;;5055110;28;20046;-73
2023/05/04 07:05:21;;;;;;;1.95;1.73;;;18.90;47.40;;;;;;5054631;28;20032;-73
2023/05/04 07:07:47;;;;;;;3.97;1.63;;;18.90;47.40;;;;;;5053552;28;20033;-73
2023/05/04 07:10:14;;;;;;;1.83;1.73;;;18.90;47.40;;;;;;5054565;28;20035;-73
2023/05/04 07:12:40;;;;;;;1.70;1.58;;;18.90;47.50;;;;;;5053889;28;20387;-73
2023/05/04 07:15:07;;;;;;;2.25;1.90;;;18.90;47.50;;;;;;5054745;28;20117;-73
2023/05/04 07:17:33;;;;;;;3.15;1.70;;;18.90;47.50;;;;;;5053674;28;20033;-73
2023/05/04 07:20:01;;;;;;;2.55;1.67;;;18.90;47.50;;;;;;5054542;28;20371;-73
2023/05/04 07:22:27;;;;;;;3.47;1.70;;;18.90;47.50;;;;;;5054514;28;20043;-73
2023/05/04 07:24:53;;;;;;;2.95;1.80;;;18.90;47.50;;;;;;5054561;28;20028;-73
2023/05/04 07:27:18;;;;;;;2.10;1.67;;;18.90;47.50;;;;;;5054212;28;20074;-73
2023/05/04 07:29:44;;;;;;;2.20;1.58;;;18.90;47.50;;;;;;5054511;28;20037;-73
2023/05/04 07:32:10;;;;;;;6.78;1.95;;;19.00;47.50;;;;;;5054475;28;20091;-73
2023/05/04 07:34:36;;;;;;;2.05;1.85;;;19.00;47.40;;;;;;5053169;28;20025;-73
2023/05/04 07:37:04;;;;;;;2.47;1.77;;;19.00;47.40;;;;;;5054362;28;20021;-73
2023/05/04 07:39:33;;;;;;;3.80;1.70;;;19.00;47.30;;;;;;5053286;28;20068;-73
2023/05/04 07:41:59;;;;;;;1.50;1.40;;;19.10;47.20;;;;;;5054154;28;20021;-73
2023/05/04 07:44:25;;;;;;;2.83;1.50;;;19.10;47.10;;;;;;5054286;28;20032;-73
2023/05/04 07:46:51;;;;;;;6.85;1.95;;;19.10;46.90;;;;;;5053098;28;20107;-73
2023/05/04 07:49:16;;;;;;;6.60;1.90;;;19.10;46.60;;;;;;5053914;28;20036;-72
2023/05/04 07:51:42;;;;;;;2.17;1.58;;;19.10;46.50;;;;;;5053894;28;20047;-73
2023/05/04 07:54:08;;;;;;;2.63;1.60;;;19.20;46.40;;;;;;5053792;28;20124;-73
2023/05/04 07:56:34;;;;;;;1.70;1.60;;;19.20;46.20;;;;;;5053969;28;20530;-73
2023/05/04 07:58:59;;;;;;;2.75;1.77;;;19.30;46.10;;;;;;5053526;28;20068;-73
2023/05/04 08:01:25;;;;;;;3.28;1.60;;;19.30;45.90;;;;;;5053775;28;20052;-73
2023/05/04 08:03:50;;;;;;;1.50;1.40;;;19.30;45.70;;;;;;5053823;28;20379;-73
2023/05/04 08:06:16;;;;;;;1.63;1.52;;;19.30;45.50;;;;;;5053685;28;20029;-73
2023/05/04 08:08:43;;;;;;;2.35;1.38;;;19.40;45.40;;;;;;5053698;28;20047;-73
2023/05/04 08:11:13;;;;;;;1.40;1.30;;;19.40;45.20;;;;;;5052733;28;20379;-73
2023/05/04 08:13:39;;;;;;;2.25;1.40;;;19.50;45.20;;;;;;5053785;28;20025;-73
2023/05/04 08:16:05;;;;;;;2.95;1.67;;;19.50;45.10;;;;;;5053515;28;20463;-73
2023/05/04 08:18:31;;;;;;;3.00;1.50;;;19.60;45.00;;;;;;5053460;28;20029;-73
2023/05/04 08:20:57;;;;;;;2.28;1.40;;;19.60;44.90;;;;;;5053224;28;20029;-73
2023/05/04 08:23:23;;;;;;;1.63;1.52;;;19.70;44.90;;;;;;5053877;28;20039;-73
2023/05/04 08:25:48;;;;;;;2.45;1.60;;;19.70;44.70;;;;;;5053357;28;20024;-73
2023/05/04 08:28:14;;;;;;;1.98;1.80;;;19.80;44.70;;;;;;5053415;28;20045;-73
2023/05/04 08:30:39;;;;;;;1.85;1.50;;;19.80;44.60;;;;;;5053300;28;20041;-73
2023/05/04 08:33:07;;;;;;;1.65;1.35;;;19.90;44.60;;;;;;5053386;28;20056;-73
2023/05/04 08:35:32;;;;;;;2.28;1.58;;;19.90;44.50;;;;;;5052103;28;20025;-73
2023/05/04 08:37:58;;;;;;;1.60;1.40;;;20.00;44.40;;;;;;5053501;28;20025;-73
2023/05/04 08:40:24;;;;;;;2.40;1.40;;;20.00;44.30;;;;;;5053385;28;20036;-73
2023/05/04 08:42:51;;;;;;;3.53;1.73;;;20.00;44.20;;;;;;5053273;28;20474;-73
2023/05/04 08:45:17;;;;;;;1.55;1.45;;;20.10;44.00;;;;;;5053674;28;20021;-73
2023/05/04 08:47:43;;;;;;;2.70;1.60;;;20.10;43.50;;;;;;5052228;28;20036;-73
2023/05/04 08:50:10;;;;;;;2.10;1.55;;;20.20;43.50;;;;;;5053362;28;20470;-73
2023/05/04 08:52:37;;;;;;;2.47;1.52;;;20.20;43.20;;;;;;5053377;28;20025;-73
2023/05/04 08:55:04;;;;;;;3.58;1.40;;;20.20;42.90;;;;;;5053458;28;20032;-73
2023/05/04 08:57:32;;;;;;;2.42;1.38;;;20.30;42.70;;;;;;5051974;28;20033;-73
2023/05/04 09:00:00;;;;;;;1.88;1.42;;;20.30;42.50;;;;;;5052081;28;20083;-73
2023/05/04 09:02:26;;;;;;;1.67;1.40;;;20.30;42.30;;;;;;5053101;28;20367;-73
2023/05/04 09:04:52;;;;;;;1.67;1.42;;;20.30;42.20;;;;;;5053215;28;20017;-73
2023/05/04 09:07:19;;;;;;;1.98;1.50;;;20.40;42.10;;;;;;5053221;28;20060;-73
2023/05/04 09:09:47;;;;;;;1.80;1.38;;;20.40;42.00;;;;;;5053058;28;20471;-73
2023/05/04 09:12:13;;;;;;;2.08;1.50;;;20.40;41.90;;;;;;5056603;28;20057;-74
2023/05/04 09:14:40;;;;;;;2.05;1.60;;;20.40;41.80;;;;;;5057331;28;20083;-74
2023/05/04 09:17:24;;;;;;;1.40;1.30;;;20.40;41.70;;;;;;5056978;28;20108;-73
2023/05/04 09:20:00;;;;;;;1.93;1.50;;;20.40;41.60;;;;;;5055656;28;20025;-73
2023/05/04 09:22:28;;;;;;;2.10;1.40;;;20.50;41.60;;;;;;5056869;28;20025;-71
2023/05/04 09:25:04;;;;;;;1.33;1.23;;;20.50;41.80;;;;;;5045178;28;20041;-70
2023/05/04 09:27:30;;;;;;;1.42;1.30;;;20.60;42.10;;;;;;5044001;28;20080;-71
2023/05/04 09:29:55;;;;;;;1.52;1.30;;;20.60;42.20;;;;;;5043809;28;20025;-71
2023/05/04 09:32:21;;;;;;;1.55;1.30;;;20.70;42.40;;;;;;5045515;28;20033;-71
2023/05/04 09:34:51;;;;;;;1.52;1.42;;;20.70;42.30;;;;;;5045725;28;20021;-72
2023/05/04 09:37:19;;;;;;;1.75;1.60;;;20.80;42.40;;;;;;5044295;28;20395;-71
2023/05/04 09:39:52;;;;;;;2.35;1.80;;;20.80;42.40;;;;;;5043687;28;20083;-72
2023/05/04 09:42:19;;;;;;;2.08;1.70;;;20.90;43.00;;;;;;5045203;28;20463;-71
2023/05/04 09:44:46;;;;;;;1.40;1.30;;;20.90;42.20;;;;;;5047067;28;20036;-71
2023/05/04 09:47:12;;;;;;;1.30;1.20;;;21.00;42.10;;;;;;5043594;28;20071;-72
2023/05/04 09:49:38;;;;;;;1.45;1.35;;;21.10;42.10;;;;;;5047844;28;20045;-71
2023/05/04 09:52:06;;;;;;;2.88;1.52;;;21.10;42.10;;;;;;5056355;28;20093;-71
2023/05/04 09:54:34;;;;;;;1.50;1.40;;;21.20;42.10;;;;;;5056212;28;20029;-72
2023/05/04 09:57:12;;;;;;;1.35;1.17;;;21.20;42.10;;;;;;5055656;28;20056;-71
2023/05/04 09:59:39;;;;;;;2.05;1.23;;;21.30;42.00;;;;;;5055884;28;20032;-72
2023/05/04 10:02:05;;;;;;;3.40;1.20;;;21.30;42.00;;;;;;5055709;28;20507;-71
2023/05/04 10:04:37;;;;;;;1.30;1.20;;;21.40;42.00;;;;;;5054492;28;20028;-71
2023/05/04 10:07:04;;;;;;;1.50;1.38;;;21.50;41.90;;;;;;5054501;28;20037;-71
2023/05/04 10:09:32;;;;;;;1.75;1.38;;;21.60;41.80;;;;;;5054781;28;20087;-72
2023/05/04 10:12:04;;;;;;;1.85;1.30;;;21.70;41.60;;;;;;5054857;28;20048;-71
2023/05/04 10:14:32;;;;;;;1.33;1.20;;;21.70;41.40;;;;;;5054983;28;20056;-71
2023/05/04 10:17:20;;;;;;;1.65;1.20;;;21.80;41.30;;;;;;5055568;28;20474;-72
2023/05/04 10:20:24;;;;;;;1.42;1.33;;;21.80;41.10;;;;;;5054293;28;20102;-71
2023/05/04 10:23:11;;;;;;;1.30;1.20;;;21.80;41.00;;;;;;5055222;28;20088;-72
2023/05/04 10:25:42;;;;;;;2.63;1.30;;;21.90;41.10;;;;;;5055619;28;20039;-71
2023/05/04 10:28:13;;;;;;;1.50;1.40;;;21.90;41.00;;;;;;5054977;28;20092;-71
2023/05/04 10:30:39;;;;;;;1.30;1.20;;;21.90;41.00;;;;;;5052947;28;21870;-72
2023/05/04 10:33:05;;;;;;;3.40;1.60;;;22.00;41.00;;;;;;5045100;28;20203;-71
2023/05/04 10:35:31;;;;;;;4.10;1.50;;;22.00;40.80;;;;;;5045894;28;20033;-82
2023/05/04 10:37:57;;;;;;;3.35;1.38;;;22.10;40.80;;;;;;5049983;28;20078;-73
2023/05/04 10:40:39;;;;;;;1.40;1.30;;;22.20;40.70;;;;;;5053694;28;20036;-80
2023/05/04 10:43:10;;;;;;;1.88;1.50;;;22.30;40.60;;;;;;5054257;28;20097;-80
2023/05/04 10:45:40;;;;;;;3.63;1.23;;;22.40;40.50;;;;;;5035023;28;20108;-75
2023/05/04 10:48:07;;;;;;;2.28;1.27;;;22.40;40.30;;;;;;5039130;28;20045;-81
2023/05/04 10:50:49;;;;;;;3.50;1.40;;;22.50;40.20;;;;;;5049521;28;20426;-80
2023/05/04 10:53:16;;;;;;;1.45;1.35;;;22.50;39.90;;;;;;5041080;28;20494;-82
2023/05/04 10:55:44;;;;;;;2.10;1.63;;;22.60;39.90;;;;;;5054069;28;20025;-79
2023/05/04 10:58:13;;;;;;;2.40;1.63;;;22.60;39.90;;;;;;5054046;28;20025;-79
2023/05/04 11:00:46;;;;;;;1.85;1.63;;;22.70;39.80;;;;;;5048106;28;20512;-80
2023/05/04 11:03:13;;;;;;;3.25;1.73;;;22.70;39.70;;;;;;5041636;28;20017;-83
2023/05/04 11:05:49;;;;;;;2.33;1.70;;;22.70;39.60;;;;;;5042120;28;20395;-80
2023/05/04 11:08:17;;;;;;;2.42;1.70;;;22.70;39.50;;;;;;5048016;28;20041;-80
2023/05/04 11:10:43;;;;;;;1.77;1.52;;;22.80;39.50;;;;;;5052776;28;20040;-82
2023/05/04 11:13:12;;;;;;;1.98;1.52;;;22.70;39.40;;;;;;5046864;28;20021;-80
2023/05/04 11:16:04;;;;;;;2.35;1.52;;;22.80;39.40;;;;;;5050177;28;20025;-78
2023/05/04 11:18:36;;;;;;;2.63;1.50;;;22.80;39.10;;;;;;5038457;28;20106;-80
2023/05/04 11:21:02;;;;;;;1.50;1.40;;;22.80;39.30;;;;;;5039503;28;20025;-78
2023/05/04 11:23:28;;;;;;;2.00;1.67;;;22.80;39.20;;;;;;5036783;28;20078;-81
2023/05/04 11:25:54;;;;;;;3.92;1.65;;;22.70;39.20;;;;;;5039355;28;20034;-77
2023/05/04 11:28:31;;;;;;;1.92;1.38;;;22.70;39.20;;;;;;5043770;28;20053;-77
2023/05/04 11:30:57;;;;;;;2.60;1.80;;;22.70;39.20;;;;;;5041924;28;20025;-80
2023/05/04 11:33:23;;;;;;;1.80;1.35;;;22.70;39.30;;;;;;5044785;28;20114;-81
2023/05/04 11:35:48;;;;;;;1.98;1.33;;;22.70;39.40;;;;;;5046822;28;20460;-82
2023/05/04 11:38:20;;;;;;;1.45;1.33;;;22.70;39.40;;;;;;5043294;28;20021;-79
2023/05/04 11:40:49;;;;;;;2.05;1.38;;;22.70;39.30;;;;;;5042934;28;20032;-79
2023/05/04 11:43:15;;;;;;;1.40;1.30;;;22.70;39.20;;;;;;5046356;28;20025;-77
2023/05/04 11:45:42;;;;;;;1.63;1.48;;;22.70;39.20;;;;;;5042830;28;20033;-76
2023/05/04 11:48:08;;;;;;;1.50;1.40;;;22.70;39.10;;;;;;5035589;28;20029;-76
2023/05/04 11:50:34;;;;;;;1.55;1.45;;;22.70;39.00;;;;;;5033829;28;20025;-76
2023/05/04 11:53:12;;;;;;;1.83;1.70;;;22.70;39.00;;;;;;5033688;28;20040;-76
2023/05/04 11:55:38;;;;;;;3.03;1.50;;;22.80;38.90;;;;;;5033476;28;20048;-76
2023/05/04 11:58:06;;;;;;;2.83;1.55;;;22.80;38.90;;;;;;5033941;28;20022;-76
2023/05/04 12:00:38;;;;;;;2.20;1.50;;;22.90;38.80;;;;;;5032688;28;20387;-76
2023/05/04 12:03:05;;;;;;;2.63;1.27;;;23.00;38.80;;;;;;5033755;28;20030;-76
2023/05/04 12:05:33;;;;;;;2.10;1.27;;;23.00;38.80;;;;;;5033634;28;20140;-76
2023/05/04 12:07:59;;;;;;;1.75;1.27;;;23.00;38.70;;;;;;5032224;28;20022;-76
2023/05/04 12:10:29;;;;;;;3.08;1.40;;;23.10;38.60;;;;;;5033312;28;20021;-76
2023/05/04 12:12:54;;;;;;;2.33;1.42;;;23.10;38.50;;;;;;5033691;28;20021;-76
2023/05/04 12:15:31;;;;;;;3.35;1.20;;;23.20;38.50;;;;;;5033828;28;20025;-76
2023/05/04 12:17:58;;;;;;;2.15;1.27;;;23.20;38.30;;;;;;5033504;28;20052;-76
2023/05/04 12:20:27;;;;;;;2.33;1.20;;;23.30;38.40;;;;;;5033346;28;20037;-76
2023/05/04 12:22:56;;;;;;;2.10;1.00;;;23.30;38.30;;;;;;5033618;28;20025;-76
2023/05/04 12:25:23;;;;;;;3.42;1.27;;;23.30;38.20;;;;;;5033562;28;20025;-76
2023/05/04 12:27:49;;;;;;;3.17;1.45;;;23.30;38.20;;;;;;5033290;28;20046;-76
2023/05/04 12:30:15;;;;;;;1.20;1.10;;;23.40;38.20;;;;;;5033652;28;20060;-76
2023/05/04 12:32:44;;;;;;;1.23;1.13;;;23.40;38.00;;;;;;5033370;28;20040;-76
2023/05/04 12:35:10;;;;;;;3.67;1.30;;;23.40;37.90;;;;;;5033319;28;20056;-76
2023/05/04 12:37:36;;;;;;;1.98;1.35;;;23.40;37.80;;;;;;5033560;28;20029;-76
2023/05/04 12:40:03;;;;;;;2.47;1.10;;;23.40;37.80;;;;;;5033460;28;20033;-76
2023/05/04 12:42:29;;;;;;;2.15;0.90;;;23.50;37.70;;;;;;5033668;28;20032;-76
2023/05/04 12:44:55;;;;;;;1.67;1.00;;;23.50;37.60;;;;;;5035066;28;20101;-77
2023/05/04 12:47:23;;;;;;;0.93;0.93;;;23.60;37.60;;;;;;5037301;28;20022;-78